createdAt,value
2018-07-09T00:00:03.871Z,16
2018-07-09T00:01:03.718Z,15.875
2018-07-09T00:02:03.512Z,15.812
2018-07-09T00:03:04.195Z,15.687
2018-07-09T00:04:03.713Z,15.625
2018-07-09T00:05:04.269Z,15.562
2018-07-09T00:06:03.726Z,15.5
2018-07-09T00:07:04.216Z,15.437
2018-07-09T00:08:03.886Z,15.312
2018-07-09T00:09:04.099Z,15.25
2018-07-09T00:10:03.771Z,15.25
2018-07-09T00:11:04.305Z,15.125
2018-07-09T00:12:03.643Z,15.125
2018-07-09T00:13:04.264Z,15.187
2018-07-09T00:14:03.805Z,15.25
2018-07-09T00:15:03.992Z,15.312
2018-07-09T00:16:03.908Z,15.5
2018-07-09T00:17:03.893Z,15.625
2018-07-09T00:18:03.654Z,15.687
2018-07-09T00:19:05.253Z,15.875
2018-07-09T00:20:04.131Z,16
2018-07-09T00:21:03.528Z,16.062
2018-07-09T00:22:04.099Z,16
2018-07-09T00:23:04.027Z,16
2018-07-09T00:24:04.573Z,16.125
2018-07-09T00:25:03.859Z,16.25
2018-07-09T00:26:03.660Z,16.375
2018-07-09T00:27:04.277Z,16.5
2018-07-09T00:28:03.592Z,16.562
2018-07-09T00:29:03.961Z,16.625
2018-07-09T00:30:04.222Z,16.625
2018-07-09T00:31:03.725Z,16.562
2018-07-09T00:32:03.879Z,16.5
2018-07-09T00:33:04.155Z,16.5
2018-07-09T00:34:03.798Z,16.5
2018-07-09T00:36:04.281Z,16.437
2018-07-09T00:37:03.674Z,16.5
2018-07-09T00:38:04.073Z,16.5
2018-07-09T00:39:03.813Z,16.5
2018-07-09T00:40:04.321Z,16.5
2018-07-09T00:41:03.451Z,16.5
2018-07-09T00:42:03.942Z,16.5
2018-07-09T00:43:03.510Z,16.562
2018-07-09T00:44:04.122Z,16.5
2018-07-09T00:45:03.695Z,16.562
2018-07-09T00:46:03.378Z,16.562
2018-07-09T00:47:04.345Z,16.625
2018-07-09T00:48:03.357Z,16.562
2018-07-09T00:49:03.990Z,16.625
2018-07-09T00:50:04.474Z,16.625
2018-07-09T00:51:03.909Z,16.625
2018-07-09T00:52:03.659Z,16.625
2018-07-09T00:53:03.571Z,16.625
2018-07-09T00:54:04.081Z,16.625
2018-07-09T00:55:03.582Z,16.687
2018-07-09T00:56:03.829Z,16.687
2018-07-09T00:57:03.617Z,16.625
2018-07-09T00:58:04.030Z,16.625
2018-07-09T00:59:03.756Z,16.625
2018-07-09T01:00:03.618Z,16.687
2018-07-09T01:01:04.281Z,16.687
2018-07-09T01:02:03.807Z,16.75
2018-07-09T01:03:04.340Z,16.687
2018-07-09T01:04:03.850Z,16.75
2018-07-09T01:05:03.883Z,16.687
2018-07-09T01:06:03.796Z,16.687
2018-07-09T01:07:03.886Z,16.625
2018-07-09T01:08:04.680Z,16.625
2018-07-09T01:09:04.753Z,16.625
2018-07-09T01:10:04.199Z,16.562
2018-07-09T01:11:04.058Z,16.562
2018-07-09T01:12:03.772Z,16.562
2018-07-09T01:13:03.356Z,16.562
2018-07-09T01:14:04.023Z,16.5
2018-07-09T01:15:03.625Z,16.5
2018-07-09T01:16:03.785Z,16.562
2018-07-09T01:17:03.574Z,16.562
2018-07-09T01:18:04.229Z,16.562
2018-07-09T01:19:04.035Z,16.562
2018-07-09T01:20:03.876Z,16.562
2018-07-09T01:21:03.567Z,16.562
2018-07-09T01:22:04.345Z,16.562
2018-07-09T01:23:03.639Z,16.625
2018-07-09T01:24:04.375Z,16.625
2018-07-09T01:25:03.870Z,16.625
2018-07-09T01:26:03.463Z,16.625
2018-07-09T01:27:03.984Z,16.687
2018-07-09T01:28:03.347Z,16.687
2018-07-09T01:29:03.930Z,16.687
2018-07-09T01:30:04.948Z,16.687
2018-07-09T01:31:03.423Z,16.687
2018-07-09T01:32:04.188Z,16.687
2018-07-09T01:33:03.654Z,16.687
2018-07-09T01:34:04.193Z,16.687
2018-07-09T01:35:03.931Z,16.687
2018-07-09T01:36:03.525Z,16.687
2018-07-09T01:37:04.367Z,16.687
2018-07-09T01:38:05.119Z,16.687
2018-07-09T01:39:04.933Z,16.687
2018-07-09T01:40:03.514Z,16.687
2018-07-09T01:41:04.500Z,16.625
2018-07-09T01:42:03.374Z,16.625
2018-07-09T01:43:04.989Z,16.625
2018-07-09T01:44:04.072Z,16.562
2018-07-09T01:45:03.865Z,16.5
2018-07-09T01:46:03.595Z,16.437
2018-07-09T01:47:04.339Z,16.375
2018-07-09T01:48:03.968Z,16.375
2018-07-09T01:49:03.405Z,16.312
2018-07-09T01:50:03.858Z,16.312
2018-07-09T01:51:03.385Z,16.25
2018-07-09T01:52:05.053Z,16.187
2018-07-09T01:53:03.373Z,16.187
2018-07-09T01:54:04.092Z,16.125
2018-07-09T01:55:04.257Z,16.125
2018-07-09T01:56:04.144Z,16.062
2018-07-09T01:57:03.933Z,16
2018-07-09T01:58:05.404Z,15.937
2018-07-09T01:59:03.736Z,15.937
2018-07-09T02:00:03.613Z,15.875
2018-07-09T02:01:04.467Z,15.812
2018-07-09T02:02:04.312Z,15.75
2018-07-09T02:03:03.996Z,15.75
2018-07-09T02:04:03.575Z,15.687
2018-07-09T02:05:03.795Z,15.625
2018-07-09T02:06:03.631Z,15.625
2018-07-09T02:07:08.975Z,15.687
2018-07-09T02:08:03.914Z,15.625
2018-07-09T02:09:04.001Z,15.687
2018-07-09T02:10:03.613Z,15.625
2018-07-09T02:11:04.465Z,15.625
2018-07-09T02:12:03.739Z,15.562
2018-07-09T02:13:03.857Z,15.562
2018-07-09T02:14:05.346Z,15.562
2018-07-09T02:15:03.871Z,15.562
2018-07-09T02:16:04.394Z,15.562
2018-07-09T02:17:04.150Z,15.562
2018-07-09T02:18:03.860Z,15.562
2018-07-09T02:19:05.064Z,15.625
2018-07-09T02:20:03.986Z,15.625
2018-07-09T02:21:03.611Z,15.625
2018-07-09T02:22:04.215Z,15.562
2018-07-09T02:23:04.053Z,15.562
2018-07-09T02:24:04.028Z,15.5
2018-07-09T02:25:03.429Z,15.5
2018-07-09T02:26:03.540Z,15.437
2018-07-09T02:27:04.023Z,15.437
2018-07-09T02:28:04.409Z,15.375
2018-07-09T02:29:04.119Z,15.375
2018-07-09T02:30:04.025Z,15.312
2018-07-09T02:31:04.196Z,15.25
2018-07-09T02:32:03.900Z,15.187
2018-07-09T02:33:03.918Z,15.187
2018-07-09T02:34:03.685Z,15.125
2018-07-09T02:35:04.193Z,15.125
2018-07-09T02:36:03.943Z,15.125
2018-07-09T02:37:03.549Z,15.125
2018-07-09T02:38:04.260Z,15.125
2018-07-09T02:39:04.077Z,15.125
2018-07-09T02:40:03.766Z,15.062
2018-07-09T02:41:03.524Z,15.062
2018-07-09T02:42:04.172Z,15.062
2018-07-09T02:43:03.858Z,15.062
2018-07-09T02:44:03.628Z,15.062
2018-07-09T02:45:04.431Z,15
2018-07-09T02:46:04.213Z,14.937
2018-07-09T02:47:03.926Z,14.937
2018-07-09T02:48:04.049Z,14.875
2018-07-09T02:49:03.934Z,14.875
2018-07-09T02:50:03.565Z,14.812
2018-07-09T02:51:04.256Z,14.812
2018-07-09T02:52:03.943Z,14.812
2018-07-09T02:53:04.191Z,14.812
2018-07-09T02:54:03.960Z,14.75
2018-07-09T02:55:04.597Z,14.687
2018-07-09T02:56:04.055Z,14.625
2018-07-09T02:57:03.665Z,14.625
2018-07-09T02:58:03.379Z,14.625
2018-07-09T02:59:04.665Z,14.625
2018-07-09T03:01:04.078Z,14.625
2018-07-09T03:02:03.897Z,14.625
2018-07-09T03:03:03.571Z,14.625
2018-07-09T03:04:04.010Z,14.625
2018-07-09T03:05:03.708Z,14.625
2018-07-09T03:06:03.272Z,14.625
2018-07-09T03:07:04.082Z,14.687
2018-07-09T03:08:03.675Z,14.687
2018-07-09T03:09:04.707Z,14.75
2018-07-09T03:10:04.463Z,14.812
2018-07-09T03:11:04.014Z,14.875
2018-07-09T03:12:03.573Z,14.812
2018-07-09T03:13:04.192Z,14.812
2018-07-09T03:14:04.002Z,14.875
2018-07-09T03:15:04.349Z,14.875
2018-07-09T03:16:03.452Z,14.875
2018-07-09T03:17:04.331Z,14.937
2018-07-09T03:18:03.836Z,14.937
2018-07-09T03:19:03.478Z,14.875
2018-07-09T03:20:04.090Z,14.812
2018-07-09T03:21:03.811Z,14.75
2018-07-09T03:22:03.440Z,14.75
2018-07-09T03:23:03.919Z,14.75
2018-07-09T03:24:03.814Z,14.75
2018-07-09T03:25:03.566Z,14.75
2018-07-09T03:26:03.860Z,14.75
2018-07-09T03:27:03.578Z,14.812
2018-07-09T03:28:04.445Z,15.062
2018-07-09T03:29:04.069Z,15.375
2018-07-09T03:30:04.141Z,15.687
2018-07-09T03:31:04.241Z,15.937
2018-07-09T03:32:03.781Z,16.187
2018-07-09T03:33:03.583Z,16.375
2018-07-09T03:34:04.123Z,16.562
2018-07-09T03:35:03.619Z,16.75
2018-07-09T03:36:03.356Z,16.875
2018-07-09T03:37:05.118Z,17.062
2018-07-09T03:38:03.283Z,17.187
2018-07-09T03:39:04.456Z,17.437
2018-07-09T03:40:04.268Z,17.687
2018-07-09T03:41:03.633Z,17.812
2018-07-09T03:42:04.187Z,18
2018-07-09T03:43:04.984Z,18.062
2018-07-09T03:44:04.306Z,18.062
2018-07-09T03:45:04.786Z,18.187
2018-07-09T03:46:03.394Z,18.125
2018-07-09T03:47:04.288Z,18.312
2018-07-09T03:48:03.928Z,18.312
2018-07-09T03:49:04.356Z,18.312
2018-07-09T03:50:03.643Z,18.375
2018-07-09T03:51:04.245Z,18.562
2018-07-09T03:52:03.798Z,18.687
2018-07-09T03:53:03.381Z,18.812
2018-07-09T03:54:04.799Z,19
2018-07-09T03:55:04.316Z,19.125
2018-07-09T03:56:03.537Z,19.375
2018-07-09T03:57:04.280Z,19.437
2018-07-09T03:58:04.100Z,19.437
2018-07-09T03:59:03.536Z,19.437
2018-07-09T04:00:04.498Z,19.562
2018-07-09T04:01:04.167Z,19.5
2018-07-09T04:02:03.672Z,19.375
2018-07-09T04:03:04.251Z,19.375
2018-07-09T04:04:03.686Z,19.625
2018-07-09T04:05:03.728Z,19.812
2018-07-09T04:06:04.114Z,19.937
2018-07-09T04:07:03.714Z,20
2018-07-09T04:08:04.214Z,19.937
2018-07-09T04:09:04.489Z,19.937
2018-07-09T04:10:03.493Z,20.125
2018-07-09T04:11:04.072Z,20.25
2018-07-09T04:12:03.706Z,20.187
2018-07-09T04:13:04.412Z,20.187
2018-07-09T04:14:03.871Z,20.062
2018-07-09T04:15:04.108Z,20.125
2018-07-09T04:16:04.333Z,20.312
2018-07-09T04:17:04.044Z,20.375
2018-07-09T04:18:03.866Z,20.312
2018-07-09T04:19:03.440Z,20.437
2018-07-09T04:20:04.326Z,20.562
2018-07-09T04:21:03.732Z,20.625
2018-07-09T04:22:03.343Z,20.75
2018-07-09T04:23:03.970Z,20.687
2018-07-09T04:24:03.414Z,20.812
2018-07-09T04:25:04.493Z,20.875
2018-07-09T04:26:03.608Z,21.125
2018-07-09T04:27:04.548Z,21.312
2018-07-09T04:28:04.189Z,21.375
2018-07-09T04:29:03.990Z,21.312
2018-07-09T04:30:05.560Z,21.437
2018-07-09T04:31:04.053Z,21.5
2018-07-09T04:32:03.741Z,21.562
2018-07-09T04:33:04.147Z,21.812
2018-07-09T04:34:03.618Z,21.625
2018-07-09T04:35:04.033Z,21.437
2018-07-09T04:36:04.017Z,21.5
2018-07-09T04:37:03.766Z,21.437
2018-07-09T04:38:04.298Z,21.375
2018-07-09T04:39:04.096Z,21.375
2018-07-09T04:40:03.503Z,21.437
2018-07-09T04:41:03.575Z,21.375
2018-07-09T04:42:03.641Z,21.687
2018-07-09T04:43:04.052Z,21.875
2018-07-09T04:44:03.762Z,21.812
2018-07-09T04:45:03.874Z,21.625
2018-07-09T04:46:03.425Z,21.562
2018-07-09T04:47:04.294Z,21.375
2018-07-09T04:48:03.735Z,20.937
2018-07-09T04:49:04.252Z,20.687
2018-07-09T04:50:03.638Z,20.625
2018-07-09T04:51:04.255Z,20.625
2018-07-09T04:52:03.612Z,20.75
2018-07-09T04:53:04.323Z,20.812
2018-07-09T04:54:03.968Z,20.687
2018-07-09T04:55:03.936Z,20.687
2018-07-09T04:56:04.492Z,20.812
2018-07-09T04:57:03.981Z,20.875
2018-07-09T04:58:03.623Z,21
2018-07-09T04:59:03.976Z,20.937
2018-07-09T05:00:03.629Z,20.937
2018-07-09T05:01:03.475Z,20.937
2018-07-09T05:02:04.257Z,20.812
2018-07-09T05:03:03.636Z,20.75
2018-07-09T05:04:04.424Z,20.75
2018-07-09T05:05:03.590Z,20.812
2018-07-09T05:06:04.280Z,20.75
2018-07-09T05:07:04.273Z,20.625
2018-07-09T05:08:04.132Z,20.5
2018-07-09T05:09:04.979Z,20.5
2018-07-09T05:10:03.573Z,20.5
2018-07-09T05:11:04.192Z,20.625
2018-07-09T05:12:03.906Z,20.5
2018-07-09T05:13:03.572Z,20.562
2018-07-09T05:14:04.608Z,20.375
2018-07-09T05:15:04.118Z,20.187
2018-07-09T05:16:03.970Z,20.062
2018-07-09T05:17:04.430Z,20
2018-07-09T05:18:04.343Z,20
2018-07-09T05:19:04.018Z,19.875
2018-07-09T05:20:03.691Z,19.875
2018-07-09T05:21:05.713Z,19.812
2018-07-09T05:22:04.264Z,19.75
2018-07-09T05:23:03.859Z,19.75
2018-07-09T05:24:03.702Z,19.875
2018-07-09T05:25:03.946Z,20.062
2018-07-09T05:26:04.249Z,20
2018-07-09T05:27:03.937Z,20.187
2018-07-09T05:28:03.918Z,20.312
2018-07-09T05:29:05.290Z,20.5
2018-07-09T05:30:04.075Z,20.812
2018-07-09T05:31:03.819Z,21
2018-07-09T05:32:04.018Z,20.937
2018-07-09T05:33:04.671Z,21
2018-07-09T05:34:04.089Z,21.125
2018-07-09T05:35:03.971Z,21.125
2018-07-09T05:36:03.731Z,21.25
2018-07-09T05:37:03.652Z,21.187
2018-07-09T05:38:03.363Z,21.062
2018-07-09T05:39:04.477Z,20.812
2018-07-09T05:40:03.719Z,20.437
2018-07-09T05:41:03.383Z,20.25
2018-07-09T05:42:04.007Z,19.937
2018-07-09T05:43:03.932Z,19.562
2018-07-09T05:44:03.591Z,19.25
2018-07-09T05:45:04.573Z,19.312
2018-07-09T05:46:04.960Z,19.562
2018-07-09T05:47:03.553Z,19.875
2018-07-09T05:48:04.228Z,20.125
2018-07-09T05:49:04.082Z,20.312
2018-07-09T05:50:03.734Z,20.5
2018-07-09T05:51:03.977Z,20.562
2018-07-09T05:52:03.607Z,20.5
2018-07-09T05:53:04.301Z,20.562
2018-07-09T05:54:03.933Z,20.562
2018-07-09T05:55:03.832Z,20.812
2018-07-09T05:56:04.286Z,20.937
2018-07-09T05:57:04.223Z,21.062
2018-07-09T05:58:05.464Z,21.25
2018-07-09T05:59:03.671Z,21.25
2018-07-09T06:00:04.665Z,21.25
2018-07-09T06:01:04.340Z,21.312
2018-07-09T06:02:04.123Z,21.437
2018-07-09T06:03:03.978Z,21.437
2018-07-09T06:04:03.478Z,21.187
2018-07-09T06:05:04.682Z,21.312
2018-07-09T06:06:03.917Z,21.5
2018-07-09T06:07:04.375Z,21.375
2018-07-09T06:08:03.826Z,21.312
2018-07-09T06:09:04.428Z,21.375
2018-07-09T06:10:04.044Z,21.625
2018-07-09T06:11:04.305Z,21.625
2018-07-09T06:12:03.927Z,21.75
2018-07-09T06:13:03.679Z,21.875
2018-07-09T06:14:04.011Z,21.937
2018-07-09T06:15:03.753Z,21.937
2018-07-09T06:16:04.364Z,22.062
2018-07-09T06:17:03.965Z,22.312
2018-07-09T06:18:03.406Z,22.437
2018-07-09T06:19:04.064Z,22.687
2018-07-09T06:20:03.485Z,22.562
2018-07-09T06:21:04.254Z,22.5
2018-07-09T06:22:03.852Z,22.437
2018-07-09T06:23:03.512Z,22.5
2018-07-09T06:24:04.145Z,22.812
2018-07-09T06:25:03.701Z,23.125
2018-07-09T06:26:04.263Z,23.125
2018-07-09T06:27:03.718Z,23.25
2018-07-09T06:28:04.322Z,22.937
2018-07-09T06:29:03.734Z,22.812
2018-07-09T06:30:03.507Z,22.812
2018-07-09T06:31:04.411Z,22.75
2018-07-09T06:32:03.868Z,22.562
2018-07-09T06:33:03.660Z,22.5
2018-07-09T06:34:05.332Z,22.625
2018-07-09T06:35:03.707Z,22.687
2018-07-09T06:36:03.425Z,22.75
2018-07-09T06:37:04.081Z,22.75
2018-07-09T06:38:04.278Z,22.875
2018-07-09T06:39:04.004Z,23.187
2018-07-09T06:40:03.723Z,23.062
2018-07-09T06:41:03.623Z,22.812
2018-07-09T06:42:03.517Z,22.875
2018-07-09T06:43:04.352Z,23.125
2018-07-09T06:44:03.969Z,23.25
2018-07-09T06:45:03.883Z,23.437
2018-07-09T06:46:03.572Z,23.25
2018-07-09T06:47:04.237Z,23.312
2018-07-09T06:48:03.785Z,23.375
2018-07-09T06:49:03.636Z,23.187
2018-07-09T06:50:04.243Z,23.187
2018-07-09T06:51:04.158Z,23
2018-07-09T06:52:03.605Z,22.625
2018-07-09T06:53:04.222Z,22.5
2018-07-09T06:54:03.820Z,22.5
2018-07-09T06:55:03.404Z,22.75
2018-07-09T06:56:04.145Z,22.875
2018-07-09T06:57:03.614Z,22.937
2018-07-09T06:58:04.399Z,22.937
2018-07-09T06:59:04.051Z,22.937
2018-07-09T07:00:03.964Z,23.125
2018-07-09T07:01:04.399Z,23.25
2018-07-09T07:02:04.068Z,23.25
2018-07-09T07:03:04.004Z,23.5
2018-07-09T07:04:03.791Z,23.437
2018-07-09T07:05:03.562Z,23.562
2018-07-09T07:06:04.270Z,23.625
2018-07-09T07:07:03.999Z,23.5
2018-07-09T07:08:03.385Z,23.312
2018-07-09T07:09:03.877Z,23.312
2018-07-09T07:10:03.609Z,23.375
2018-07-09T07:11:03.389Z,23.437
2018-07-09T07:12:04.318Z,23.625
2018-07-09T07:13:04.007Z,23.875
2018-07-09T07:14:03.629Z,24
2018-07-09T07:15:03.664Z,24.25
2018-07-09T07:16:04.103Z,24.187
2018-07-09T07:17:04.014Z,24.187
2018-07-09T07:18:04.006Z,24.187
2018-07-09T07:19:03.396Z,24.25
2018-07-09T07:20:03.467Z,24.062
2018-07-09T07:21:03.536Z,23.875
2018-07-09T07:22:03.309Z,23.75
2018-07-09T07:23:04.202Z,23.687
2018-07-09T07:24:03.961Z,23.687
2018-07-09T07:25:03.408Z,23.562
2018-07-09T07:26:03.419Z,23.75
2018-07-09T07:27:04.311Z,23.812
2018-07-09T07:28:03.850Z,23.75
2018-07-09T07:29:03.482Z,23.25
2018-07-09T07:30:04.916Z,23.25
2018-07-09T07:31:04.217Z,23.187
2018-07-09T07:32:04.602Z,23
2018-07-09T07:33:03.890Z,22.937
2018-07-09T07:34:03.528Z,23.25
2018-07-09T07:35:04.215Z,23.437
2018-07-09T07:36:03.817Z,23.562
2018-07-09T07:37:04.425Z,23.562
2018-07-09T07:38:03.638Z,23.937
2018-07-09T07:39:04.500Z,24.062
2018-07-09T07:40:04.440Z,23.812
2018-07-09T07:41:03.883Z,23.625
2018-07-09T07:42:04.417Z,23.437
2018-07-09T07:43:03.857Z,23.5
2018-07-09T07:44:03.589Z,23.5
2018-07-09T07:45:03.727Z,23.562
2018-07-09T07:46:04.468Z,23.437
2018-07-09T07:47:03.815Z,23.5
2018-07-09T07:48:03.570Z,23.562
2018-07-09T07:49:03.797Z,23.687
2018-07-09T07:50:03.445Z,23.625
2018-07-09T07:51:04.287Z,23.312
2018-07-09T07:52:03.541Z,23.25
2018-07-09T07:53:04.368Z,23.5
2018-07-09T07:54:03.956Z,23.812
2018-07-09T07:55:03.603Z,24.125
2018-07-09T07:56:04.487Z,24.187
2018-07-09T07:57:04.141Z,24.187
2018-07-09T07:58:04.010Z,24.25
2018-07-09T07:59:03.854Z,24.312
2018-07-09T08:00:03.764Z,24.437
2018-07-09T08:01:03.571Z,24.562
2018-07-09T08:02:03.374Z,24.75
2018-07-09T08:03:04.201Z,24.625
2018-07-09T08:04:04.280Z,24.312
2018-07-09T08:05:03.938Z,24.25
2018-07-09T08:06:03.589Z,24.312
2018-07-09T08:07:04.186Z,24.687
2018-07-09T08:08:03.773Z,24.937
2018-07-09T08:09:03.739Z,25.25
2018-07-09T08:10:03.616Z,25.25
2018-07-09T08:11:11.068Z,25.312
2018-07-09T08:12:59.667Z,25.437
2018-07-09T08:13:27.985Z,25.687
2018-07-09T08:14:04.151Z,26.062
2018-07-09T08:15:03.680Z,26.187
2018-07-09T08:16:04.188Z,26.125
2018-07-09T08:17:04.120Z,25.687
2018-07-09T08:18:03.948Z,25.5
2018-07-09T08:19:04.270Z,25.062
2018-07-09T08:20:04.165Z,24.937
2018-07-09T08:21:03.581Z,25.062
2018-07-09T08:22:04.233Z,25.5
2018-07-09T08:23:04.041Z,25.437
2018-07-09T08:24:03.998Z,25.25
2018-07-09T08:25:03.863Z,25
2018-07-09T08:26:03.368Z,25
2018-07-09T08:27:04.618Z,24.937
2018-07-09T08:28:04.074Z,24.75
2018-07-09T08:29:03.873Z,24.687
2018-07-09T08:30:03.737Z,24.562
2018-07-09T08:31:03.544Z,24.5
2018-07-09T08:32:03.584Z,24.437
2018-07-09T08:33:04.498Z,24.25
2018-07-09T08:34:04.022Z,23.875
2018-07-09T08:35:04.160Z,23.812
2018-07-09T08:36:03.635Z,23.75
2018-07-09T08:37:05.196Z,23.812
2018-07-09T08:38:03.875Z,23.687
2018-07-09T08:39:03.989Z,23.562
2018-07-09T08:40:03.779Z,23.562
2018-07-09T08:41:04.293Z,23.812
2018-07-09T08:42:03.849Z,23.875
2018-07-09T08:43:03.417Z,24
2018-07-09T08:44:04.159Z,24.062
2018-07-09T08:45:04.499Z,23.875
2018-07-09T08:46:03.524Z,23.937
2018-07-09T08:47:04.253Z,24.062
2018-07-09T08:48:04.335Z,24.312
2018-07-09T08:49:04.252Z,24.375
2018-07-09T08:50:03.499Z,24.437
2018-07-09T08:52:03.969Z,25.25
2018-07-09T08:53:04.217Z,25.562
2018-07-09T08:54:04.210Z,25.875
2018-07-09T08:55:03.827Z,26.062
2018-07-09T08:56:03.758Z,26
2018-07-09T08:57:03.723Z,26.062
2018-07-09T08:58:04.338Z,26.375
2018-07-09T08:59:03.951Z,26.437
2018-07-09T09:00:03.570Z,26.625
2018-07-09T09:01:04.352Z,26.875
2018-07-09T09:02:03.618Z,26.687
2018-07-09T09:03:03.525Z,26.625
2018-07-09T09:04:03.325Z,26.625
2018-07-09T09:05:03.759Z,26.875
2018-07-09T09:06:03.465Z,27.062
2018-07-09T09:07:03.902Z,26.875
2018-07-09T09:08:04.154Z,26.437
2018-07-09T09:09:05.135Z,26.187
2018-07-09T09:10:03.816Z,26
2018-07-09T09:11:03.761Z,26.062
2018-07-09T09:12:04.349Z,26
2018-07-09T09:13:03.501Z,25.937
2018-07-09T09:14:04.006Z,26.062
2018-07-09T09:15:04.238Z,26.375
2018-07-09T09:16:03.862Z,26.562
2018-07-09T09:17:03.752Z,26.562
2018-07-09T09:18:03.619Z,26.375
2018-07-09T09:19:04.181Z,26
2018-07-09T09:20:03.748Z,25.562
2018-07-09T09:21:04.228Z,25.437
2018-07-09T09:22:03.919Z,25.437
2018-07-09T09:23:04.091Z,25.437
2018-07-09T09:24:03.734Z,25.375
2018-07-09T09:25:03.481Z,25.312
2018-07-09T09:26:04.060Z,25.25
2018-07-09T09:27:03.713Z,25.187
2018-07-09T09:28:03.517Z,25.125
2018-07-09T09:29:04.081Z,24.937
2018-07-09T09:30:04.041Z,24.937
2018-07-09T09:31:04.397Z,24.812
2018-07-09T09:32:03.846Z,24.625
2018-07-09T09:33:03.452Z,24.687
2018-07-09T09:34:04.310Z,24.437
2018-07-09T09:35:04.178Z,24.437
2018-07-09T09:36:03.851Z,24.437
2018-07-09T09:37:03.600Z,24.687
2018-07-09T09:38:03.787Z,24.875
2018-07-09T09:39:03.928Z,25.125
2018-07-09T09:40:04.359Z,24.812
2018-07-09T09:41:03.944Z,24.5
2018-07-09T09:42:03.668Z,24.5
2018-07-09T09:43:03.393Z,24.562
2018-07-09T09:44:04.200Z,24.437
2018-07-09T09:45:03.877Z,24
2018-07-09T09:46:03.669Z,23.812
2018-07-09T09:47:03.613Z,23.625
2018-07-09T09:48:04.370Z,23.562
2018-07-09T09:49:03.888Z,23.5
2018-07-09T09:50:03.813Z,23.625
2018-07-09T09:51:04.051Z,23.562
2018-07-09T09:52:03.295Z,23.375
2018-07-09T09:53:04.075Z,23
2018-07-09T09:54:03.857Z,22.875
2018-07-09T09:55:03.547Z,22.937
2018-07-09T09:56:03.461Z,23.062
2018-07-09T09:57:04.175Z,23.187
2018-07-09T09:58:03.510Z,23.25
2018-07-09T09:59:04.181Z,23.437
2018-07-09T10:00:03.786Z,23.625
2018-07-09T10:01:04.315Z,23.562
2018-07-09T10:02:03.846Z,23.5
2018-07-09T10:03:03.989Z,23.375
2018-07-09T10:04:04.296Z,23.187
2018-07-09T10:05:03.945Z,23.187
2018-07-09T10:06:03.689Z,23.25
2018-07-09T10:07:03.554Z,23.375
2018-07-09T10:08:05.104Z,23.437
2018-07-09T10:09:03.919Z,23.625
2018-07-09T10:10:04.532Z,23.562
2018-07-09T10:11:03.868Z,23.437
2018-07-09T10:12:03.845Z,23.625
2018-07-09T10:13:03.666Z,23.75
2018-07-09T10:14:04.185Z,23.937
2018-07-09T10:15:03.952Z,24.25
2018-07-09T10:16:03.465Z,24.562
2018-07-09T10:17:04.895Z,24.687
2018-07-09T10:18:05.263Z,24.812
2018-07-09T10:19:04.199Z,24.875
2018-07-09T10:20:03.721Z,25.062
2018-07-09T10:21:03.547Z,25.437
2018-07-09T10:22:04.152Z,25.312
2018-07-09T10:23:03.961Z,25.312
2018-07-09T10:24:03.676Z,25.312
2018-07-09T10:25:04.364Z,25.562
2018-07-09T10:26:04.322Z,25.937
2018-07-09T10:27:03.851Z,25.937
2018-07-09T10:28:04.129Z,26.062
2018-07-09T10:29:03.914Z,26.062
2018-07-09T10:30:03.558Z,26.25
2018-07-09T10:31:04.344Z,26.312
2018-07-09T10:32:03.750Z,26.312
2018-07-09T10:33:04.109Z,26.437
2018-07-09T10:34:03.551Z,26.312
2018-07-09T10:35:04.153Z,26.625
2018-07-09T10:36:03.739Z,26.75
2018-07-09T10:37:04.100Z,26.5
2018-07-09T10:38:03.534Z,26.187
2018-07-09T10:39:04.587Z,26.062
2018-07-09T10:40:03.517Z,26.25
2018-07-09T10:41:04.489Z,26.625
2018-07-09T10:42:04.340Z,26.625
2018-07-09T10:43:08.349Z,26.375
2018-07-09T10:44:03.431Z,26.375
2018-07-09T10:45:04.063Z,26.25
2018-07-09T10:46:04.466Z,26.25
2018-07-09T10:47:03.515Z,26.312
2018-07-09T10:48:03.584Z,26.312
2018-07-09T10:49:04.303Z,26.5
2018-07-09T10:50:04.017Z,26.625
2018-07-09T10:51:03.604Z,26.5
2018-07-09T10:52:03.826Z,26.437
2018-07-09T10:53:04.302Z,26.312
2018-07-09T10:54:03.796Z,26.375
2018-07-09T10:55:03.544Z,26.375
2018-07-09T10:56:04.284Z,26.312
2018-07-09T10:57:03.681Z,26.375
2018-07-09T10:58:04.290Z,26.25
2018-07-09T10:59:04.118Z,26.25
2018-07-09T11:00:03.985Z,26.25
2018-07-09T11:01:03.451Z,26
2018-07-09T11:02:04.193Z,25.75
2018-07-09T11:03:03.965Z,25.875
2018-07-09T11:04:03.579Z,26.062
2018-07-09T11:05:04.254Z,26.187
2018-07-09T11:06:03.573Z,26.312
2018-07-09T11:07:04.258Z,26.437
2018-07-09T11:08:03.848Z,26.312
2018-07-09T11:09:03.999Z,26.25
2018-07-09T11:10:03.693Z,26.437
2018-07-09T11:11:03.406Z,26.375
2018-07-09T11:12:03.942Z,26.437
2018-07-09T11:13:03.533Z,26.375
2018-07-09T11:14:03.251Z,26.437
2018-07-09T11:15:03.912Z,26.5
2018-07-09T11:16:03.528Z,26.312
2018-07-09T11:17:03.760Z,25.875
2018-07-09T11:18:03.439Z,25.5
2018-07-09T11:19:04.137Z,25.5
2018-07-09T11:20:03.707Z,25.75
2018-07-09T11:21:04.296Z,25.937
2018-07-09T11:22:04.165Z,26
2018-07-09T11:23:04.002Z,25.875
2018-07-09T11:24:03.778Z,25.75
2018-07-09T11:25:04.148Z,25.687
2018-07-09T11:26:03.898Z,25.875
2018-07-09T11:27:03.364Z,26
2018-07-09T11:28:04.275Z,26.062
2018-07-09T11:29:03.794Z,26.25
2018-07-09T11:30:04.430Z,26.25
2018-07-09T11:31:03.967Z,26.312
2018-07-09T11:32:04.163Z,26.312
2018-07-09T11:33:03.845Z,26.062
2018-07-09T11:34:03.708Z,26.125
2018-07-09T11:35:04.349Z,26.562
2018-07-09T11:36:03.636Z,27.062
2018-07-09T11:37:03.710Z,27.375
2018-07-09T11:38:03.372Z,27.312
2018-07-09T11:39:05.342Z,27.312
2018-07-09T11:40:03.972Z,27.437
2018-07-09T11:41:03.896Z,27.375
2018-07-09T11:42:03.767Z,27.375
2018-07-09T11:43:03.573Z,27.312
2018-07-09T11:44:03.538Z,27.187
2018-07-09T11:45:04.381Z,27.125
2018-07-09T11:46:03.989Z,27
2018-07-09T11:47:03.609Z,26.875
2018-07-09T11:48:03.404Z,26.812
2018-07-09T11:49:04.148Z,26.75
2018-07-09T11:50:03.830Z,26.812
2018-07-09T11:51:03.506Z,26.937
2018-07-09T11:52:04.304Z,27.187
2018-07-09T11:53:03.689Z,27.312
2018-07-09T11:54:03.521Z,27.375
2018-07-09T11:55:03.490Z,27.437
2018-07-09T11:56:04.172Z,27.5
2018-07-09T11:57:04.291Z,27.375
2018-07-09T11:58:04.048Z,27.5
2018-07-09T11:59:04.040Z,27.25
2018-07-09T12:00:03.750Z,27.125
2018-07-09T12:01:05.245Z,27.187
2018-07-09T12:02:04.104Z,27.375
2018-07-09T12:03:03.678Z,27.437
2018-07-09T12:04:03.524Z,27.5
2018-07-09T12:05:04.199Z,27.562
2018-07-09T12:06:03.787Z,27.625
2018-07-09T12:07:03.529Z,27.562
2018-07-09T12:08:05.315Z,27.125
2018-07-09T12:09:04.188Z,26.687
2018-07-09T12:10:03.757Z,26.5
2018-07-09T12:11:04.254Z,26.437
2018-07-09T12:12:04.745Z,26.375
2018-07-09T12:13:04.141Z,26.375
2018-07-09T12:14:04.169Z,26.5
2018-07-09T12:15:04.393Z,26.625
2018-07-09T12:16:04.010Z,26.312
2018-07-09T12:17:03.773Z,26.312
2018-07-09T12:18:03.708Z,26.125
2018-07-09T12:19:03.894Z,25.812
2018-07-09T12:20:03.585Z,25.562
2018-07-09T12:21:04.225Z,25.312
2018-07-09T12:22:03.827Z,25.187
2018-07-09T12:23:03.633Z,25.25
2018-07-09T12:24:03.974Z,25.25
2018-07-09T12:25:03.331Z,25.187
2018-07-09T12:26:04.190Z,25.125
2018-07-09T12:27:03.828Z,25.062
2018-07-09T12:28:03.776Z,24.937
2018-07-09T12:29:03.790Z,25
2018-07-09T12:30:03.401Z,25
2018-07-09T12:31:04.946Z,25.187
2018-07-09T12:32:03.336Z,25.375
2018-07-09T12:33:04.146Z,25.375
2018-07-09T12:34:04.001Z,25.375
2018-07-09T12:35:03.871Z,25.437
2018-07-09T12:36:03.755Z,25.375
2018-07-09T12:37:03.603Z,25.187
2018-07-09T12:38:04.219Z,25.25
2018-07-09T12:39:03.930Z,25.375
2018-07-09T12:40:03.773Z,25.25
2018-07-09T12:41:05.391Z,25.187